createdAt,value
2023-02-05T00:01:34.700Z,4.36
2023-02-05T00:04:01.556Z,4.21
2023-02-05T00:06:28.230Z,4.20
2023-02-05T00:08:55.988Z,4.24
2023-02-05T00:11:22.631Z,4.27
2023-02-05T00:13:49.246Z,4.18
2023-02-05T00:16:18.059Z,4.30
2023-02-05T00:18:46.701Z,4.31
2023-02-05T00:21:14.615Z,4.07
2023-02-05T00:23:41.576Z,4.19
2023-02-05T00:26:09.124Z,4.36
2023-02-05T00:28:36.762Z,4.14
2023-02-05T00:31:08.834Z,4.12
2023-02-05T00:33:35.688Z,4.10
2023-02-05T00:36:04.172Z,4.13
2023-02-05T00:38:31.025Z,4.04
2023-02-05T00:40:57.879Z,4.02
2023-02-05T00:43:24.609Z,3.92
2023-02-05T00:45:51.416Z,3.81
2023-02-05T00:48:18.165Z,3.83
2023-02-05T00:50:44.922Z,3.89
2023-02-05T00:53:12.965Z,3.65
2023-02-05T00:55:39.692Z,3.51
2023-02-05T00:58:06.540Z,3.58
2023-02-05T01:00:33.463Z,3.34
2023-02-05T01:03:00.348Z,3.22
2023-02-05T01:05:27.672Z,3.11
2023-02-05T01:07:54.423Z,3.12
2023-02-05T01:10:22.878Z,3.27
2023-02-05T01:12:49.783Z,3.17
2023-02-05T01:15:17.239Z,3.20
2023-02-05T01:17:44.111Z,3.06
2023-02-05T01:20:12.873Z,3.18
2023-02-05T01:22:39.805Z,3.13
2023-02-05T01:25:07.218Z,3.19
2023-02-05T01:27:36.579Z,3.04
2023-02-05T01:30:05.711Z,3.28
2023-02-05T01:32:32.531Z,3.16
2023-02-05T01:34:59.232Z,2.97
2023-02-05T01:37:25.876Z,3.01
2023-02-05T01:39:52.604Z,2.87
2023-02-05T01:42:21.953Z,2.81
2023-02-05T01:45:22.154Z,2.97
2023-02-05T01:47:51.783Z,2.89
2023-02-05T01:50:20.321Z,2.94
2023-02-05T01:52:55.970Z,2.92
2023-02-05T01:55:22.866Z,2.78
2023-02-05T01:57:51.453Z,2.86
2023-02-05T02:00:18.268Z,2.75
2023-02-05T02:02:45.287Z,2.93
2023-02-05T02:05:15.698Z,2.79
2023-02-05T02:07:42.664Z,2.79
2023-02-05T02:10:12.756Z,2.50
2023-02-05T02:12:42.557Z,2.62
2023-02-05T02:15:12.787Z,2.64
2023-02-05T02:17:42.244Z,2.26
2023-02-05T02:20:11.966Z,2.42
2023-02-05T02:22:57.907Z,2.40
2023-02-05T02:25:59.538Z,2.38
2023-02-05T02:28:31.724Z,2.42
2023-02-05T02:31:04.602Z,2.60
2023-02-05T02:33:38.426Z,2.60
2023-02-05T02:36:12.048Z,2.51
2023-02-05T02:38:43.111Z,2.76
2023-02-05T02:41:14.643Z,2.70
2023-02-05T02:43:49.541Z,2.64
2023-02-05T02:46:21.326Z,2.53
2023-02-05T02:48:51.246Z,2.47
2023-02-05T02:51:21.060Z,2.59
2023-02-05T02:53:50.559Z,2.60
2023-02-05T02:56:19.086Z,2.13
2023-02-05T02:58:50.391Z,2.62
2023-02-05T03:01:21.452Z,2.45
2023-02-05T03:03:53.225Z,2.53
2023-02-05T03:06:21.955Z,2.52
2023-02-05T03:08:53.277Z,2.78
2023-02-05T03:11:19.978Z,2.44
2023-02-05T03:13:51.248Z,2.12
2023-02-05T03:16:19.777Z,2.23
2023-02-05T03:18:47.493Z,2.36
2023-02-05T03:21:18.240Z,2.50
2023-02-05T03:23:45.348Z,2.04
2023-02-05T03:26:26.012Z,2.11
2023-02-05T03:28:54.976Z,2.34
2023-02-05T03:31:25.636Z,2.49
2023-02-05T03:34:02.562Z,2.46
2023-02-05T03:36:40.569Z,2.59
2023-02-05T03:39:21.404Z,2.23
2023-02-05T03:41:54.920Z,2.68
2023-02-05T03:44:37.582Z,2.91
2023-02-05T03:47:09.130Z,2.61
2023-02-05T03:49:46.107Z,2.45
2023-02-05T03:52:17.533Z,2.51
2023-02-05T03:54:50.400Z,2.55
2023-02-05T03:57:21.355Z,2.39
2023-02-05T03:59:50.705Z,2.50
2023-02-05T04:02:18.078Z,2.87
2023-02-05T04:04:44.829Z,2.23
2023-02-05T04:07:12.117Z,1.99
2023-02-05T04:09:38.832Z,2.70
2023-02-05T04:12:05.653Z,2.27
2023-02-05T04:14:32.401Z,2.54
2023-02-05T04:17:00.450Z,2.47
2023-02-05T04:19:27.091Z,2.09
2023-02-05T04:21:53.759Z,2.74
2023-02-05T04:24:20.447Z,2.16
2023-02-05T04:26:47.062Z,2.28
2023-02-05T04:29:13.788Z,1.86
2023-02-05T04:31:40.455Z,2.11
2023-02-05T04:34:08.572Z,2.34
2023-02-05T04:36:37.483Z,2.40
2023-02-05T04:39:04.285Z,2.02
2023-02-05T04:41:30.979Z,2.23
2023-02-05T04:43:57.577Z,2.32
2023-02-05T04:46:24.366Z,2.04
2023-02-05T04:48:51.049Z,1.74
2023-02-05T04:51:19.035Z,1.67
2023-02-05T04:53:45.693Z,2.02
2023-02-05T04:56:14.676Z,2.08
2023-02-05T04:58:41.907Z,2.00
2023-02-05T05:01:12.877Z,1.84
2023-02-05T05:03:39.625Z,1.87
2023-02-05T05:06:07.383Z,1.69
2023-02-05T05:08:35.489Z,2.05
2023-02-05T05:11:07.349Z,1.80
2023-02-05T05:13:34.356Z,2.06
2023-02-05T05:16:01.558Z,2.22
2023-02-05T05:18:28.581Z,2.04
2023-02-05T05:20:55.264Z,2.25
2023-02-05T05:23:22.160Z,1.75
2023-02-05T05:25:50.479Z,2.04
2023-02-05T05:28:17.553Z,1.80
2023-02-05T05:30:45.461Z,1.88
2023-02-05T05:33:12.815Z,1.89
2023-02-05T05:35:39.697Z,2.11
2023-02-05T05:38:06.952Z,1.94
2023-02-05T05:40:33.896Z,1.91
2023-02-05T05:43:01.913Z,1.94
2023-02-05T05:45:28.564Z,1.92
2023-02-05T05:47:55.248Z,1.75
2023-02-05T05:50:21.905Z,1.95
2023-02-05T05:52:48.605Z,1.90
2023-02-05T05:55:15.224Z,1.86
2023-02-05T05:57:41.858Z,1.88
2023-02-05T06:00:11.955Z,1.68
2023-02-05T06:02:40.370Z,1.80
2023-02-05T06:05:07.614Z,1.84
2023-02-05T06:07:34.202Z,1.82
2023-02-05T06:10:00.863Z,1.77
2023-02-05T06:12:27.518Z,1.61
2023-02-05T06:14:54.150Z,1.73
2023-02-05T06:17:22.205Z,1.76
2023-02-05T06:19:48.905Z,1.67
2023-02-05T06:22:15.545Z,2.09
2023-02-05T06:24:42.220Z,1.63
2023-02-05T06:27:08.832Z,1.82
2023-02-05T06:29:35.551Z,1.85
2023-02-05T06:32:02.188Z,1.65
2023-02-05T06:34:30.296Z,1.95
2023-02-05T06:36:56.956Z,1.82
2023-02-05T06:39:25.187Z,2.06
2023-02-05T06:41:51.976Z,1.94
2023-02-05T06:44:18.722Z,1.80
2023-02-05T06:46:45.406Z,1.94
2023-02-05T06:49:12.027Z,1.73
2023-02-05T06:51:40.049Z,2.07
2023-02-05T06:54:06.692Z,1.79
2023-02-05T06:56:33.355Z,1.83
2023-02-05T06:59:00.055Z,1.95
2023-02-05T07:01:26.745Z,1.91
2023-02-05T07:03:53.378Z,1.99
2023-02-05T07:06:20.038Z,2.01
2023-02-05T07:08:48.060Z,1.86
2023-02-05T07:11:14.712Z,1.95
2023-02-05T07:13:41.360Z,1.78
2023-02-05T07:16:08.164Z,1.68
2023-02-05T07:18:35.202Z,1.94
2023-02-05T07:21:06.105Z,1.94
2023-02-05T07:23:32.826Z,1.95
2023-02-05T07:26:06.563Z,1.91
2023-02-05T07:28:33.243Z,2.04
2023-02-05T07:31:03.344Z,2.03
2023-02-05T07:33:30.036Z,2.08
2023-02-05T07:35:56.687Z,2.07
2023-02-05T07:38:23.345Z,2.20
2023-02-05T07:40:49.971Z,2.15
2023-02-05T07:43:17.973Z,2.12
2023-02-05T07:45:44.623Z,1.98
2023-02-05T07:48:11.276Z,2.13
2023-02-05T07:50:37.924Z,2.14
2023-02-05T07:53:04.551Z,2.07
2023-02-05T07:55:31.368Z,2.12
2023-02-05T07:57:58.001Z,2.07
2023-02-05T08:00:26.050Z,2.22
2023-02-05T08:02:52.781Z,1.92
2023-02-05T08:05:19.441Z,2.08
2023-02-05T08:07:46.094Z,2.00
2023-02-05T08:10:14.287Z,2.02
2023-02-05T08:12:40.958Z,2.20
2023-02-05T08:15:08.419Z,2.12
2023-02-05T08:17:36.495Z,2.17
2023-02-05T08:20:03.331Z,2.14
2023-02-05T08:22:29.960Z,2.18
2023-02-05T08:24:56.629Z,2.24
2023-02-05T08:27:23.317Z,2.33
2023-02-05T08:29:50.321Z,2.11
2023-02-05T08:32:17.085Z,2.09
2023-02-05T08:34:45.186Z,2.17
2023-02-05T08:37:11.849Z,2.30
2023-02-05T08:39:38.621Z,2.31
2023-02-05T08:42:05.439Z,2.48
2023-02-05T08:44:32.216Z,2.37
2023-02-05T08:46:58.929Z,2.42
2023-02-05T08:49:25.824Z,2.83
2023-02-05T08:51:53.905Z,2.53
2023-02-05T08:54:20.545Z,2.60
2023-02-05T08:56:50.532Z,2.67
2023-02-05T08:59:17.598Z,2.71
2023-02-05T09:01:44.594Z,2.84
2023-02-05T09:04:14.170Z,2.85
2023-02-05T09:06:41.355Z,2.99
2023-02-05T09:09:09.645Z,3.07
2023-02-05T09:11:36.586Z,2.92
2023-02-05T09:14:03.673Z,2.83
2023-02-05T09:16:30.517Z,3.08
2023-02-05T09:18:58.185Z,2.75
2023-02-05T09:21:25.526Z,2.93
2023-02-05T09:23:53.685Z,2.88
2023-02-05T09:26:23.586Z,2.93
2023-02-05T09:28:50.402Z,2.84
2023-02-05T09:31:19.331Z,2.82
2023-02-05T09:33:46.552Z,2.76
2023-02-05T09:36:16.709Z,2.97
2023-02-05T09:38:43.908Z,2.98
2023-02-05T09:41:19.172Z,3.01
2023-02-05T09:43:53.649Z,2.91
2023-02-05T09:46:32.465Z,3.20
2023-02-05T09:49:03.058Z,3.16
2023-02-05T09:51:33.879Z,3.18
2023-02-05T09:54:06.720Z,3.26
2023-02-05T09:56:35.980Z,3.44
2023-02-05T09:59:04.568Z,3.63
2023-02-05T10:01:43.293Z,3.70
2023-02-05T10:04:10.276Z,3.43
2023-02-05T10:07:05.937Z,3.02
2023-02-05T10:10:13.502Z,3.51
2023-02-05T10:12:50.061Z,3.88
2023-02-05T10:15:37.505Z,3.81
2023-02-05T10:18:16.352Z,3.35
2023-02-05T10:20:56.174Z,3.63
2023-02-05T10:23:39.753Z,3.61
2023-02-05T10:26:10.562Z,3.47
2023-02-05T10:29:05.514Z,3.86
2023-02-05T10:31:42.112Z,3.81
2023-02-05T10:34:18.855Z,3.64
2023-02-05T10:36:50.777Z,3.63
2023-02-05T10:39:20.408Z,3.47
2023-02-05T10:41:48.740Z,3.92
2023-02-05T10:44:23.750Z,3.48
2023-02-05T10:46:58.971Z,3.75
2023-02-05T10:49:36.589Z,3.69
2023-02-05T10:52:04.122Z,3.93
2023-02-05T10:54:33.142Z,3.58
2023-02-05T10:57:01.172Z,3.74
2023-02-05T10:59:30.510Z,3.81
2023-02-05T11:02:03.642Z,3.85
2023-02-05T11:04:37.687Z,3.91
2023-02-05T11:07:13.463Z,3.59
2023-02-05T11:09:41.222Z,3.68
2023-02-05T11:12:18.064Z,3.85
2023-02-05T11:14:47.061Z,3.87
2023-02-05T11:17:23.440Z,3.75
2023-02-05T11:19:54.612Z,3.93
2023-02-05T11:22:27.841Z,3.93
2023-02-05T11:25:06.795Z,4.43
2023-02-05T11:27:34.720Z,4.16
2023-02-05T11:30:37.545Z,3.97
2023-02-05T11:33:34.596Z,3.88
2023-02-05T11:36:03.059Z,4.30
2023-02-05T11:38:42.161Z,4.49
2023-02-05T11:41:11.907Z,4.34
2023-02-05T11:43:45.500Z,4.38
2023-02-05T11:46:19.023Z,4.64
2023-02-05T11:48:56.076Z,4.73
2023-02-05T11:51:38.647Z,4.19
2023-02-05T11:54:17.647Z,4.47
2023-02-05T11:56:59.557Z,4.56
2023-02-05T11:59:32.783Z,4.49
2023-02-05T12:02:28.422Z,4.88
2023-02-05T12:05:00.941Z,5.06
2023-02-05T12:07:35.585Z,4.99
2023-02-05T12:10:02.421Z,4.86
2023-02-05T12:12:42.015Z,4.62
2023-02-05T12:15:14.131Z,4.78
2023-02-05T12:17:47.876Z,4.62
2023-02-05T12:20:27.723Z,4.45
2023-02-05T12:23:30.170Z,4.47
2023-02-05T12:26:17.466Z,4.51
2023-02-05T12:28:53.910Z,4.52
2023-02-05T12:31:40.766Z,4.68
2023-02-05T12:37:37.442Z,4.25
2023-02-05T12:40:46.707Z,4.29
2023-02-05T12:43:39.794Z,4.60
2023-02-05T12:46:28.819Z,4.70
2023-02-05T12:49:14.169Z,5.31
2023-02-05T12:52:07.417Z,4.89
2023-02-05T12:54:52.412Z,5.00
2023-02-05T12:57:24.757Z,4.72
2023-02-05T12:59:58.768Z,4.56
2023-02-05T13:02:35.320Z,4.37
2023-02-05T13:05:20.245Z,4.43
2023-02-05T13:07:57.032Z,4.89
2023-02-05T13:10:34.047Z,4.56
2023-02-05T13:13:05.710Z,4.43
2023-02-05T13:15:40.765Z,4.45
2023-02-05T13:18:24.284Z,4.66
2023-02-05T13:20:59.869Z,4.52
2023-02-05T13:23:36.077Z,4.42
2023-02-05T13:26:06.177Z,4.78
2023-02-05T13:28:39.447Z,5.19
2023-02-05T13:31:36.288Z,5.63
2023-02-05T13:34:05.724Z,5.55
2023-02-05T13:37:01.312Z,5.54
2023-02-05T13:40:04.317Z,5.31
2023-02-05T13:43:12.925Z,4.92
2023-02-05T13:46:07.837Z,4.35
2023-02-05T13:49:13.613Z,4.44
2023-02-05T13:52:02.681Z,5.00
2023-02-05T13:55:03.738Z,5.01
2023-02-05T13:58:19.702Z,4.73
2023-02-05T14:00:54.985Z,4.65
2023-02-05T14:03:27.413Z,4.73
2023-02-05T14:05:54.532Z,4.80
2023-02-05T14:08:24.925Z,4.83
2023-02-05T14:11:00.370Z,5.27
2023-02-05T14:13:29.310Z,4.68
2023-02-05T14:15:57.809Z,5.04
2023-02-05T14:19:03.842Z,5.27
2023-02-05T14:22:05.088Z,4.90
2023-02-05T14:24:48.907Z,4.98
2023-02-05T14:27:51.225Z,4.89
2023-02-05T14:30:47.688Z,4.75
2023-02-05T14:33:37.240Z,4.69
2023-02-05T14:36:39.762Z,4.55
2023-02-05T14:39:20.049Z,4.73
2023-02-05T14:41:50.529Z,4.61
2023-02-05T14:44:25.470Z,4.51
2023-02-05T14:47:00.117Z,4.80
2023-02-05T14:49:35.539Z,4.95
2023-02-05T14:52:04.910Z,4.85
2023-02-05T14:54:43.573Z,4.92
2023-02-05T14:57:18.270Z,4.50
2023-02-05T14:59:53.799Z,4.71
2023-02-05T15:03:03.186Z,4.35
2023-02-05T15:05:37.233Z,4.33
2023-02-05T15:08:13.422Z,4.73
2023-02-05T15:10:48.528Z,4.72
2023-02-05T15:13:17.281Z,4.81
2023-02-05T15:16:09.252Z,4.74
2023-02-05T15:18:40.918Z,4.19
2023-02-05T15:21:15.668Z,4.38
2023-02-05T15:23:45.330Z,4.47
2023-02-05T15:26:19.391Z,4.59
2023-02-05T15:28:55.858Z,4.43
2023-02-05T15:31:30.680Z,4.52
2023-02-05T15:34:26.741Z,4.30
2023-02-05T15:37:00.596Z,4.23
2023-02-05T15:39:34.182Z,4.30
2023-02-05T15:42:02.976Z,3.95
2023-02-05T15:44:31.687Z,4.14
2023-02-05T15:47:01.682Z,4.12
2023-02-05T15:49:36.476Z,3.99
2023-02-05T15:52:05.644Z,4.02
2023-02-05T15:54:34.704Z,3.80
2023-02-05T15:57:03.813Z,3.80
2023-02-05T15:59:31.791Z,3.85
2023-02-05T16:02:05.922Z,3.90
2023-02-05T16:04:47.081Z,3.82
2023-02-05T16:07:21.213Z,3.71
2023-02-05T16:09:50.625Z,3.39
2023-02-05T16:12:18.420Z,3.30
2023-02-05T16:14:45.258Z,3.36
2023-02-05T16:17:17.413Z,3.58
2023-02-05T16:19:49.610Z,3.37
2023-02-05T16:22:33.783Z,3.54
2023-02-05T16:25:08.156Z,3.56
2023-02-05T16:27:40.891Z,3.52
2023-02-05T16:30:16.838Z,3.46
2023-02-05T16:32:43.848Z,3.54
2023-02-05T16:35:35.754Z,3.44
2023-02-05T16:38:04.376Z,3.43
2023-02-05T16:40:35.091Z,3.27
2023-02-05T16:43:19.098Z,3.30
2023-02-05T16:46:20.652Z,3.04
2023-02-05T16:48:52.771Z,3.38
2023-02-05T16:52:01.044Z,3.24
2023-02-05T16:54:31.867Z,3.11
2023-02-05T16:57:03.552Z,3.09
2023-02-05T16:59:33.567Z,3.01
2023-02-05T17:02:00.745Z,3.02
2023-02-05T17:04:31.725Z,3.03
2023-02-05T17:07:00.902Z,2.85
2023-02-05T17:09:34.726Z,2.83
2023-02-05T17:12:35.265Z,2.87
2023-02-05T17:15:14.023Z,2.89
2023-02-05T17:17:48.559Z,2.71
2023-02-05T17:20:20.782Z,2.63
2023-02-05T17:23:12.682Z,2.66
2023-02-05T17:25:43.966Z,2.64
2023-02-05T17:28:19.126Z,2.59
2023-02-05T17:30:47.342Z,2.65
2023-02-05T17:33:17.657Z,2.55
2023-02-05T17:35:48.429Z,2.61
2023-02-05T17:38:15.954Z,2.65
2023-02-05T17:40:44.785Z,2.58
2023-02-05T17:43:11.534Z,2.51
2023-02-05T17:45:40.391Z,2.38
2023-02-05T17:48:07.997Z,2.38
2023-02-05T17:50:35.764Z,2.36
2023-02-05T17:53:03.271Z,2.38
2023-02-05T17:55:30.422Z,2.25
2023-02-05T17:57:58.646Z,2.31
2023-02-05T18:00:27.737Z,2.41
2023-02-05T18:02:58.170Z,2.14
2023-02-05T18:05:25.469Z,2.09
2023-02-05T18:07:54.442Z,2.12
2023-02-05T18:10:24.168Z,2.07
2023-02-05T18:12:58.288Z,2.28
2023-02-05T18:15:26.353Z,2.09
2023-02-05T18:17:54.089Z,2.18
2023-02-05T18:20:30.277Z,2.08
2023-02-05T18:22:57.067Z,2.03
2023-02-05T18:25:38.954Z,2.27
2023-02-05T18:28:07.315Z,2.09
2023-02-05T18:30:44.798Z,2.01
2023-02-05T18:33:11.851Z,1.88
2023-02-05T18:35:43.882Z,1.94
2023-02-05T18:38:16.432Z,1.93
2023-02-05T18:40:43.405Z,1.95
2023-02-05T18:43:11.703Z,1.99
2023-02-05T18:45:41.524Z,1.79
2023-02-05T18:48:08.361Z,1.84
2023-02-05T18:50:35.676Z,1.80
2023-02-05T18:53:02.768Z,2.01
2023-02-05T18:55:29.706Z,1.70
2023-02-05T18:57:56.668Z,1.74
2023-02-05T19:00:24.883Z,1.61
2023-02-05T19:02:51.602Z,1.56
2023-02-05T19:05:18.608Z,1.46
2023-02-05T19:07:45.680Z,1.50
2023-02-05T19:10:12.438Z,1.36
2023-02-05T19:12:39.142Z,1.54
2023-02-05T19:15:06.572Z,1.58
2023-02-05T19:17:34.646Z,1.49
2023-02-05T19:20:01.350Z,1.39
2023-02-05T19:22:28.046Z,1.42
2023-02-05T19:24:54.895Z,1.71
2023-02-05T19:27:21.874Z,1.49
2023-02-05T19:29:48.804Z,1.51
2023-02-05T19:32:15.658Z,1.49
2023-02-05T19:34:48.113Z,1.37
2023-02-05T19:37:14.863Z,1.39
2023-02-05T19:39:41.719Z,1.36
2023-02-05T19:42:08.413Z,1.49
2023-02-05T19:44:35.143Z,1.50
2023-02-05T19:47:02.026Z,1.32
2023-02-05T19:49:28.952Z,1.26
2023-02-05T19:51:57.148Z,1.23
2023-02-05T19:54:23.886Z,1.46
2023-02-05T19:56:50.949Z,1.35
2023-02-05T19:59:18.143Z,1.09
2023-02-05T20:01:45.367Z,1.33
2023-02-05T20:04:16.786Z,1.46
2023-02-05T20:06:44.662Z,1.32
2023-02-05T20:09:13.468Z,1.27
2023-02-05T20:11:42.563Z,1.33
2023-02-05T20:14:10.415Z,1.45
2023-02-05T20:16:37.537Z,1.43
2023-02-05T20:19:04.149Z,1.11
2023-02-05T20:21:30.706Z,1.36
2023-02-05T20:23:57.424Z,1.27
2023-02-05T20:26:25.389Z,1.34
2023-02-05T20:28:52.960Z,1.21
2023-02-05T20:31:19.489Z,1.33
2023-02-05T20:33:46.464Z,1.14
2023-02-05T20:36:12.952Z,0.99
2023-02-05T20:38:39.669Z,0.78
2023-02-05T20:41:12.639Z,0.70
2023-02-05T20:43:40.806Z,0.96
2023-02-05T20:46:07.516Z,1.06
2023-02-05T20:48:34.165Z,1.22
2023-02-05T20:51:04.342Z,1.03
2023-02-05T20:53:30.776Z,1.05
2023-02-05T20:55:59.799Z,1.10
2023-02-05T20:58:26.344Z,0.84
2023-02-05T21:00:54.390Z,0.95
2023-02-05T21:03:20.966Z,1.08
2023-02-05T21:05:47.403Z,1.18
2023-02-05T21:08:13.923Z,1.01
2023-02-05T21:10:40.322Z,0.84
2023-02-05T21:13:06.785Z,0.65
2023-02-05T21:15:33.797Z,0.71
2023-02-05T21:18:01.618Z,0.76
2023-02-05T21:20:28.045Z,0.47
2023-02-05T21:22:54.940Z,0.66
2023-02-05T21:25:21.321Z,0.60
2023-02-05T21:27:47.811Z,0.66
2023-02-05T21:30:14.260Z,0.96
2023-02-05T21:32:40.773Z,1.03
2023-02-05T21:35:08.665Z,0.95
2023-02-05T21:37:35.109Z,1.01
2023-02-05T21:40:09.174Z,1.12
2023-02-05T21:42:36.008Z,1.10
2023-02-05T21:45:02.776Z,1.18
2023-02-05T21:47:29.488Z,1.06
2023-02-05T21:49:56.562Z,1.06
2023-02-05T21:52:25.735Z,1.01
2023-02-05T21:55:04.971Z,1.00
2023-02-05T21:57:31.813Z,0.76
2023-02-05T22:00:27.096Z,0.87
2023-02-05T22:02:54.164Z,1.14
2023-02-05T22:05:21.128Z,1.08
2023-02-05T22:07:49.551Z,0.69
2023-02-05T22:10:16.937Z,0.71
2023-02-05T22:12:43.827Z,0.57
2023-02-05T22:15:10.865Z,0.62
2023-02-05T22:17:37.941Z,0.77
2023-02-05T22:20:05.299Z,0.97
2023-02-05T22:22:35.850Z,0.50
2023-02-05T22:25:04.850Z,0.58
2023-02-05T22:27:32.377Z,0.54
2023-02-05T22:29:59.993Z,0.89
2023-02-05T22:32:27.048Z,0.86
2023-02-05T22:34:53.966Z,0.76
2023-02-05T22:37:21.035Z,0.80
2023-02-05T22:39:48.154Z,0.91
2023-02-05T22:42:18.926Z,0.98
2023-02-05T22:44:46.076Z,0.76
2023-02-05T22:47:13.212Z,0.88
2023-02-05T22:49:40.258Z,0.85
2023-02-05T22:52:07.238Z,1.01
2023-02-05T22:54:33.911Z,0.80
2023-02-05T22:57:01.031Z,0.50
2023-02-05T22:59:29.395Z,0.79
2023-02-05T23:01:56.013Z,0.58
2023-02-05T23:04:22.607Z,0.31
2023-02-05T23:06:49.256Z,0.46
2023-02-05T23:09:18.020Z,0.74
2023-02-05T23:11:45.364Z,0.80
2023-02-05T23:14:14.109Z,0.54
2023-02-05T23:16:44.267Z,0.61
2023-02-05T23:19:13.969Z,0.42
2023-02-05T23:21:40.531Z,0.48
2023-02-05T23:24:08.556Z,0.73
2023-02-05T23:26:37.570Z,0.77
2023-02-05T23:29:04.625Z,0.72
2023-02-05T23:31:31.435Z,0.59
2023-02-05T23:33:59.626Z,0.81
2023-02-05T23:36:26.305Z,0.62
2023-02-05T23:38:52.984Z,0.47
2023-02-05T23:41:19.681Z,0.66
2023-02-05T23:43:46.390Z,0.71
2023-02-05T23:46:13.162Z,0.75
2023-02-05T23:48:39.759Z,0.77
2023-02-05T23:51:08.057Z,0.53
2023-02-05T23:53:34.713Z,0.16
2023-02-05T23:56:02.357Z,0.44
2023-02-05T23:58:29.066Z,0.58
